Time;durP1;ratioP1;P1;durP2;ratioP2;P2;SDS_P1;SDS_P2;PMS_P1;PMS_P2;Temp;Humidity;BMP_temperature;BMP_pressure;BME280_temperature;BME280_humidity;BME280_pressure;Samples;Min_cycle;Max_cycle;Signal;HPM_P1;HPM_P2
2024/01/23 00:00:32;;;;;;;5.07;4.77;;;;;;;;;;5093069;28;20194;-84
2024/01/23 00:03:00;;;;;;;8.80;5.07;;;;;;;;;;5093492;28;20242;-83
2024/01/23 00:05:29;;;;;;;6.40;5.77;;;;;;;;;;5095205;28;20230;-83
2024/01/23 00:07:56;;;;;;;6.83;5.53;;;;;;;;;;5093581;28;20523;-85
2024/01/23 00:10:25;;;;;;;5.63;4.77;;;;;;;;;;5094447;28;20216;-83
2024/01/23 00:12:52;;;;;;;8.57;5.80;;;;;;;;;;5094655;28;20240;-84
2024/01/23 00:15:20;;;;;;;8.40;5.70;;;;;;;;;;5093855;28;20217;-83
2024/01/23 00:17:48;;;;;;;4.70;4.30;;;;;;;;;;5093913;28;20198;-84
2024/01/23 00:20:16;;;;;;;12.07;4.97;;;;;;;;;;5093840;28;20456;-84
2024/01/23 00:22:45;;;;;;;8.17;3.93;;;;;;;;;;5094021;28;20281;-83
2024/01/23 00:25:13;;;;;;;6.37;5.97;;;;;;;;;;5093850;28;20444;-84
2024/01/23 00:27:41;;;;;;;3.87;3.60;;;;;;;;;;5094639;28;20197;-83
2024/01/23 00:30:10;;;;;;;11.80;5.33;;;;;;;;;;5092022;28;20262;-84
2024/01/23 00:32:38;;;;;;;10.20;6.77;;;;;;;;;;5094480;28;20811;-84
2024/01/23 00:35:07;;;;;;;8.30;5.67;;;;;;;;;;5094753;28;20197;-83
2024/01/23 00:37:34;;;;;;;7.30;4.40;;;;;;;;;;5096353;28;20276;-83
2024/01/23 00:40:06;;;;;;;8.33;5.67;;;;;;;;;;5101142;28;20444;-84
2024/01/23 00:42:34;;;;;;;14.03;6.27;;;;;;;;;;5105370;28;20212;-83
2024/01/23 00:45:03;;;;;;;13.00;4.93;;;;;;;;;;5111704;28;20448;-83
2024/01/23 00:47:30;;;;;;;5.27;4.70;;;;;;;;;;5099583;28;20456;-83
2024/01/23 00:50:00;;;;;;;8.20;7.37;;;;;;;;;;5094061;28;20314;-83
2024/01/23 00:52:27;;;;;;;11.30;4.70;;;;;;;;;;5093559;28;20260;-83
2024/01/23 00:54:58;;;;;;;5.23;3.40;;;;;;;;;;5094720;28;20201;-84
2024/01/23 00:57:28;;;;;;;6.00;5.47;;;;;;;;;;5092591;28;20546;-83
2024/01/23 00:59:55;;;;;;;2.43;2.43;;;;;;;;;;5092792;28;20447;-83
2024/01/23 01:02:23;;;;;;;4.67;4.23;;;;;;;;;;5092483;28;20455;-84
2024/01/23 01:04:54;;;;;;;9.23;6.17;;;;;;;;;;5093829;28;20623;-84
2024/01/23 01:07:21;;;;;;;8.07;7.33;;;;;;;;;;5093478;28;20204;-85
2024/01/23 01:09:49;;;;;;;3.87;3.57;;;;;;;;;;5094114;28;20214;-83
2024/01/23 01:12:16;;;;;;;6.20;4.60;;;;;;;;;;5094997;28;20605;-84
2024/01/23 01:14:47;;;;;;;11.67;6.50;;;;;;;;;;5095672;28;20190;-83
2024/01/23 01:17:15;;;;;;;4.10;3.90;;;;;;;;;;5094058;28;20200;-83
2024/01/23 01:19:43;;;;;;;9.70;7.10;;;;;;;;;;5093165;28;20464;-84
2024/01/23 01:22:14;;;;;;;6.80;4.90;;;;;;;;;;5093325;28;20460;-84
2024/01/23 01:24:44;;;;;;;24.53;4.53;;;;;;;;;;5097011;28;20439;-85
2024/01/23 01:27:18;;;;;;;6.57;6.00;;;;;;;;;;5099333;28;20440;-84
2024/01/23 01:29:47;;;;;;;6.47;3.77;;;;;;;;;;5100293;28;20515;-83
2024/01/23 01:32:14;;;;;;;12.80;6.93;;;;;;;;;;5111741;28;20480;-83
2024/01/23 01:34:42;;;;;;;16.70;7.20;;;;;;;;;;5110603;28;20443;-83
2024/01/23 01:37:09;;;;;;;5.63;5.23;;;;;;;;;;5093317;28;20546;-83
2024/01/23 01:39:40;;;;;;;9.17;4.60;;;;;;;;;;5096218;28;20485;-84
2024/01/23 01:42:08;;;;;;;5.77;5.13;;;;;;;;;;5099911;28;20452;-83
2024/01/23 01:44:36;;;;;;;6.17;5.67;;;;;;;;;;5101467;28;20198;-84
2024/01/23 01:47:05;;;;;;;9.60;5.83;;;;;;;;;;5103212;28;20478;-82
2024/01/23 01:49:33;;;;;;;9.40;7.63;;;;;;;;;;5102214;28;20528;-83
2024/01/23 01:52:00;;;;;;;4.60;4.20;;;;;;;;;;5098347;28;20491;-84
2024/01/23 01:54:29;;;;;;;5.53;4.40;;;;;;;;;;5097244;28;20456;-83
2024/01/23 01:56:59;;;;;;;6.90;4.23;;;;;;;;;;5097250;28;20452;-84
2024/01/23 01:59:26;;;;;;;7.03;5.43;;;;;;;;;;5097022;28;20824;-83
2024/01/23 02:01:54;;;;;;;11.83;6.00;;;;;;;;;;5099048;28;20566;-84
2024/01/23 02:04:25;;;;;;;6.30;5.80;;;;;;;;;;5098191;28;20523;-84
2024/01/23 02:06:53;;;;;;;7.23;5.80;;;;;;;;;;5096768;28;20452;-83
2024/01/23 02:09:21;;;;;;;14.00;4.73;;;;;;;;;;5097561;28;20855;-83
2024/01/23 02:11:57;;;;;;;4.30;4.07;;;;;;;;;;5096528;28;20483;-84
2024/01/23 02:14:25;;;;;;;6.83;4.90;;;;;;;;;;5096833;28;20463;-84
2024/01/23 02:16:52;;;;;;;10.60;4.03;;;;;;;;;;5097432;28;20534;-84
2024/01/23 02:19:20;;;;;;;12.43;3.53;;;;;;;;;;5096836;28;20452;-85
2024/01/23 02:21:50;;;;;;;7.33;5.23;;;;;;;;;;5096902;28;20804;-84
2024/01/23 02:24:19;;;;;;;5.57;4.97;;;;;;;;;;5097183;28;20468;-84
2024/01/23 02:26:46;;;;;;;44.93;7.07;;;;;;;;;;5097020;28;20494;-84
2024/01/23 02:29:16;;;;;;;12.43;5.73;;;;;;;;;;5096262;28;20444;-85
2024/01/23 02:31:44;;;;;;;8.87;6.67;;;;;;;;;;5096940;28;20551;-84
2024/01/23 02:34:12;;;;;;;14.53;6.73;;;;;;;;;;5096001;28;20906;-84
2024/01/23 02:36:41;;;;;;;14.17;6.77;;;;;;;;;;5096620;28;20807;-83
2024/01/23 02:39:09;;;;;;;7.30;6.57;;;;;;;;;;5094879;28;20424;-83
2024/01/23 02:41:38;;;;;;;6.27;5.67;;;;;;;;;;5096491;28;20467;-84
2024/01/23 02:44:06;;;;;;;9.07;6.33;;;;;;;;;;5096955;28;20501;-82
2024/01/23 02:46:34;;;;;;;3.97;3.83;;;;;;;;;;5096927;28;20554;-85
2024/01/23 02:49:01;;;;;;;21.67;5.13;;;;;;;;;;5096511;28;20524;-85
2024/01/23 02:51:30;;;;;;;22.70;7.87;;;;;;;;;;5075301;28;20226;-84
2024/01/23 02:53:59;;;;;;;8.27;7.13;;;;;;;;;;5074644;28;20437;-84
2024/01/23 02:56:27;;;;;;;11.17;5.43;;;;;;;;;;5075740;28;20537;-84
2024/01/23 02:58:56;;;;;;;10.03;4.63;;;;;;;;;;5076080;28;20437;-84
2024/01/23 03:01:23;;;;;;;20.93;6.37;;;;;;;;;;5076068;28;20562;-83
2024/01/23 03:03:51;;;;;;;11.43;7.73;;;;;;;;;;5075408;28;20508;-82
2024/01/23 03:06:19;;;;;;;6.80;3.87;;;;;;;;;;5074608;28;20449;-83
2024/01/23 03:08:46;;;;;;;6.00;4.63;;;;;;;;;;5074280;28;20445;-85
2024/01/23 03:11:13;;;;;;;4.27;3.60;;;;;;;;;;5075355;28;20441;-83
2024/01/23 03:13:43;;;;;;;4.43;2.57;;;;;;;;;;5075808;28;21024;-83
2024/01/23 03:16:12;;;;;;;4.87;2.90;;;;;;;;;;5075598;28;20433;-83
2024/01/23 03:18:40;;;;;;;5.73;5.23;;;;;;;;;;5074898;28;20506;-86
2024/01/23 03:21:08;;;;;;;6.63;4.57;;;;;;;;;;5092696;28;20440;-82
2024/01/23 03:23:36;;;;;;;13.87;6.23;;;;;;;;;;5095500;28;20955;-83
2024/01/23 03:26:05;;;;;;;10.03;4.80;;;;;;;;;;5095738;28;20596;-84
2024/01/23 03:28:33;;;;;;;11.47;8.03;;;;;;;;;;5094998;28;20451;-84
2024/01/23 03:31:01;;;;;;;5.13;2.83;;;;;;;;;;5093527;28;20482;-85
2024/01/23 03:33:30;;;;;;;6.43;5.47;;;;;;;;;;5084970;28;20492;-83
2024/01/23 03:35:57;;;;;;;3.80;3.60;;;;;;;;;;5082529;28;20452;-82
2024/01/23 03:38:25;;;;;;;3.40;3.17;;;;;;;;;;5081871;28;20467;-84
2024/01/23 03:40:52;;;;;;;13.63;4.60;;;;;;;;;;5095365;28;20482;-83
2024/01/23 03:43:20;;;;;;;9.57;5.53;;;;;;;;;;5090340;28;20460;-84
2024/01/23 03:45:47;;;;;;;7.70;3.23;;;;;;;;;;5075766;28;20465;-83
2024/01/23 03:48:18;;;;;;;15.07;6.73;;;;;;;;;;5075640;28;20540;-84
2024/01/23 03:50:50;;;;;;;3.93;3.63;;;;;;;;;;5075179;28;20506;-83
2024/01/23 03:53:18;;;;;;;9.30;5.93;;;;;;;;;;5091796;28;20472;-84
2024/01/23 03:55:45;;;;;;;5.80;4.30;;;;;;;;;;5095236;28;20432;-83
2024/01/23 03:58:12;;;;;;;3.33;2.67;;;;;;;;;;5097790;28;20428;-84
2024/01/23 04:00:42;;;;;;;2.60;2.50;;;;;;;;;;5098637;28;20569;-83
2024/01/23 04:03:11;;;;;;;11.53;5.07;;;;;;;;;;5099342;28;20552;-83
2024/01/23 04:05:37;;;;;;;8.70;5.70;;;;;;;;;;5100313;28;20440;-84
2024/01/23 04:08:08;;;;;;;4.43;4.17;;;;;;;;;;5081935;28;21021;-84
2024/01/23 04:10:34;;;;;;;5.17;3.30;;;;;;;;;;5073638;28;20450;-84
2024/01/23 04:13:02;;;;;;;5.10;4.07;;;;;;;;;;5075907;28;20571;-84
2024/01/23 04:15:30;;;;;;;7.53;3.77;;;;;;;;;;5095566;28;20431;-81
2024/01/23 04:17:58;;;;;;;5.50;3.33;;;;;;;;;;5094756;28;20862;-83
2024/01/23 04:20:27;;;;;;;23.00;4.90;;;;;;;;;;5094085;28;20458;-83
2024/01/23 04:22:56;;;;;;;4.87;4.47;;;;;;;;;;5094008;28;20539;-84
2024/01/23 04:25:25;;;;;;;6.03;5.20;;;;;;;;;;5093979;28;20420;-84
2024/01/23 04:27:53;;;;;;;6.07;5.43;;;;;;;;;;5094963;28;20432;-83
2024/01/23 04:30:21;;;;;;;4.53;3.40;;;;;;;;;;5080232;28;20522;-83
2024/01/23 04:32:48;;;;;;;11.87;6.47;;;;;;;;;;5074812;28;20813;-83
2024/01/23 04:35:17;;;;;;;9.53;7.50;;;;;;;;;;5073763;28;20510;-84
2024/01/23 04:37:45;;;;;;;24.27;6.47;;;;;;;;;;5073510;28;20532;-84
2024/01/23 04:40:12;;;;;;;10.37;6.10;;;;;;;;;;5074130;28;20503;-84
2024/01/23 04:42:42;;;;;;;13.60;5.73;;;;;;;;;;5073906;28;20449;-84
2024/01/23 04:45:10;;;;;;;10.60;5.83;;;;;;;;;;5093578;28;20448;-84
2024/01/23 04:47:38;;;;;;;3.07;2.80;;;;;;;;;;5075351;28;21047;-83
2024/01/23 04:50:06;;;;;;;8.33;5.80;;;;;;;;;;5075390;28;20791;-83
2024/01/23 04:52:34;;;;;;;12.83;4.97;;;;;;;;;;5072730;28;20490;-84
2024/01/23 04:55:02;;;;;;;4.50;3.93;;;;;;;;;;5073214;28;20445;-83
2024/01/23 04:57:31;;;;;;;7.53;6.80;;;;;;;;;;5073850;28;20445;-83
2024/01/23 05:00:00;;;;;;;4.90;2.57;;;;;;;;;;5072687;28;20464;-83
2024/01/23 05:02:28;;;;;;;10.70;4.13;;;;;;;;;;5074547;28;20433;-84
2024/01/23 05:04:55;;;;;;;11.23;5.57;;;;;;;;;;5077642;28;20445;-82
2024/01/23 05:07:23;;;;;;;20.77;6.97;;;;;;;;;;5085799;28;20456;-84
2024/01/23 05:09:51;;;;;;;3.43;2.67;;;;;;;;;;5089655;28;20484;-83
2024/01/23 05:12:18;;;;;;;15.47;6.20;;;;;;;;;;5089161;28;20492;-84
2024/01/23 05:14:46;;;;;;;4.10;3.77;;;;;;;;;;5096259;28;20725;-84
2024/01/23 05:17:15;;;;;;;9.60;4.50;;;;;;;;;;5098317;28;20488;-83
2024/01/23 05:19:43;;;;;;;8.90;4.33;;;;;;;;;;5096417;28;20440;-83
2024/01/23 05:22:12;;;;;;;5.47;3.83;;;;;;;;;;5093824;28;20428;-83
2024/01/23 05:24:40;;;;;;;6.33;3.60;;;;;;;;;;5094523;28;20527;-83
2024/01/23 05:27:10;;;;;;;1.77;1.67;;;;;;;;;;5093184;28;20514;-83
2024/01/23 05:29:38;;;;;;;5.70;2.83;;;;;;;;;;5094897;28;20489;-83
2024/01/23 05:32:05;;;;;;;12.37;5.73;;;;;;;;;;5091306;28;20981;-82
2024/01/23 05:34:35;;;;;;;2.73;2.60;;;;;;;;;;5092617;28;20832;-83
2024/01/23 05:37:02;;;;;;;4.53;4.13;;;;;;;;;;5091923;28;20440;-83
2024/01/23 05:39:30;;;;;;;2.63;2.40;;;;;;;;;;5092816;28;20476;-83
2024/01/23 05:41:57;;;;;;;5.23;3.17;;;;;;;;;;5092748;28;20460;-85
2024/01/23 05:44:25;;;;;;;5.97;4.67;;;;;;;;;;5092861;28;20594;-83
2024/01/23 05:46:52;;;;;;;5.73;4.53;;;;;;;;;;5092026;28;20546;-84
2024/01/23 05:49:20;;;;;;;5.83;4.53;;;;;;;;;;5093725;28;20448;-84
2024/01/23 05:51:49;;;;;;;5.30;3.77;;;;;;;;;;5092732;28;20435;-83
2024/01/23 05:54:17;;;;;;;6.97;5.57;;;;;;;;;;5092330;28;20458;-83
2024/01/23 05:56:44;;;;;;;2.73;2.63;;;;;;;;;;5092876;28;20464;-85
2024/01/23 05:59:11;;;;;;;3.57;3.10;;;;;;;;;;5091750;28;20459;-82
2024/01/23 06:01:40;;;;;;;4.83;4.47;;;;;;;;;;5094530;28;20447;-82
2024/01/23 06:04:09;;;;;;;6.70;4.57;;;;;;;;;;5095007;28;20917;-83
2024/01/23 06:06:40;;;;;;;8.00;3.47;;;;;;;;;;5092367;28;20453;-83
2024/01/23 06:09:12;;;;;;;14.73;6.73;;;;;;;;;;5092485;28;20517;-84
2024/01/23 06:11:39;;;;;;;18.60;6.63;;;;;;;;;;5093336;28;20542;-84
2024/01/23 06:14:06;;;;;;;4.43;4.10;;;;;;;;;;5093311;28;20582;-84
2024/01/23 06:16:34;;;;;;;10.43;4.73;;;;;;;;;;5074737;28;20436;-84
2024/01/23 06:19:02;;;;;;;20.63;7.33;;;;;;;;;;5095702;28;20447;-82
2024/01/23 06:21:29;;;;;;;6.40;5.30;;;;;;;;;;5097530;28;20452;-84
2024/01/23 06:23:56;;;;;;;9.57;7.83;;;;;;;;;;5092767;28;20981;-83
2024/01/23 06:26:25;;;;;;;14.00;6.27;;;;;;;;;;5094084;28;20186;-82
2024/01/23 06:28:52;;;;;;;6.43;5.27;;;;;;;;;;5094904;28;20273;-82
2024/01/23 06:31:25;;;;;;;13.70;8.33;;;;;;;;;;5078148;28;20409;-82
2024/01/23 06:33:54;;;;;;;19.93;11.20;;;;;;;;;;5089363;28;20230;-83
2024/01/23 06:36:23;;;;;;;8.20;7.33;;;;;;;;;;5081802;28;20281;-85
2024/01/23 06:38:50;;;;;;;5.50;4.97;;;;;;;;;;5076671;28;20190;-83
2024/01/23 06:41:17;;;;;;;23.70;7.70;;;;;;;;;;5077882;28;20199;-83
2024/01/23 06:43:47;;;;;;;5.73;4.47;;;;;;;;;;5085436;28;20202;-83
2024/01/23 06:46:14;;;;;;;24.67;9.03;;;;;;;;;;5087582;28;20210;-83
2024/01/23 06:48:44;;;;;;;8.23;7.60;;;;;;;;;;5088347;28;20554;-85
2024/01/23 06:51:14;;;;;;;9.93;7.97;;;;;;;;;;5096608;28;20289;-83
2024/01/23 06:53:42;;;;;;;8.87;7.70;;;;;;;;;;5102227;28;20230;-84
2024/01/23 06:56:09;;;;;;;33.67;9.73;;;;;;;;;;5105475;28;20182;-83
2024/01/23 06:58:36;;;;;;;15.57;10.43;;;;;;;;;;5105470;28;20200;-83
2024/01/23 07:01:07;;;;;;;27.17;12.53;;;;;;;;;;5097619;28;20239;-83
2024/01/23 07:03:34;;;;;;;29.07;10.07;;;;;;;;;;5097144;28;20230;-84
2024/01/23 07:06:01;;;;;;;16.13;9.47;;;;;;;;;;5096581;28;20757;-85
2024/01/23 07:08:28;;;;;;;15.67;9.90;;;;;;;;;;5099019;28;20209;-83
2024/01/23 07:10:56;;;;;;;20.83;12.40;;;;;;;;;;5112035;28;20350;-86
2024/01/23 07:13:24;;;;;;;26.27;12.03;;;;;;;;;;5108360;28;20232;-84
2024/01/23 07:15:52;;;;;;;23.17;12.33;;;;;;;;;;5108730;28;20299;-85
2024/01/23 07:18:21;;;;;;;18.77;10.13;;;;;;;;;;5108057;28;20206;-84
2024/01/23 07:20:52;;;;;;;19.07;11.23;;;;;;;;;;5107219;28;20222;-84
2024/01/23 07:23:22;;;;;;;30.83;13.47;;;;;;;;;;5107291;28;20206;-84
2024/01/23 07:25:49;;;;;;;34.67;13.17;;;;;;;;;;5107377;28;20217;-84
2024/01/23 07:28:17;;;;;;;23.87;14.43;;;;;;;;;;5103577;28;20202;-83
2024/01/23 07:30:46;;;;;;;23.27;12.90;;;;;;;;;;5098609;28;20190;-83
2024/01/23 07:33:14;;;;;;;39.80;14.67;;;;;;;;;;5099162;28;20213;-83
2024/01/23 07:35:45;;;;;;;28.40;13.87;;;;;;;;;;5100481;28;20202;-83
2024/01/23 07:38:12;;;;;;;38.83;12.53;;;;;;;;;;5103701;28;20285;-84
2024/01/23 07:40:40;;;;;;;38.40;16.30;;;;;;;;;;5103530;28;20208;-84
2024/01/23 07:43:09;;;;;;;27.47;14.70;;;;;;;;;;5100777;28;20205;-83
2024/01/23 07:45:37;;;;;;;25.63;11.47;;;;;;;;;;5084843;28;20190;-85
2024/01/23 07:48:05;;;;;;;20.33;12.53;;;;;;;;;;5082843;28;20674;-84
2024/01/23 07:50:32;;;;;;;29.70;14.90;;;;;;;;;;5082131;28;20203;-85
2024/01/23 07:53:02;;;;;;;27.43;13.10;;;;;;;;;;5076402;28;20231;-85
2024/01/23 07:55:30;;;;;;;23.47;10.63;;;;;;;;;;5080019;28;20218;-84
2024/01/23 07:57:59;;;;;;;21.53;12.97;;;;;;;;;;5098346;28;20209;-84
2024/01/23 08:00:27;;;;;;;45.93;14.57;;;;;;;;;;5103464;28;20197;-84
2024/01/23 08:02:54;;;;;;;45.07;16.53;;;;;;;;;;5096417;28;20222;-85
2024/01/23 08:05:22;;;;;;;44.00;16.20;;;;;;;;;;5091088;28;20210;-83
2024/01/23 08:07:49;;;;;;;40.67;16.20;;;;;;;;;;5078425;28;20267;-86
2024/01/23 08:10:21;;;;;;;42.77;18.27;;;;;;;;;;5082230;28;20269;-84
2024/01/23 08:12:48;;;;;;;42.87;15.50;;;;;;;;;;5087758;28;20220;-85
2024/01/23 08:15:17;;;;;;;39.83;13.73;;;;;;;;;;5089567;28;20261;-83
2024/01/23 08:17:45;;;;;;;36.13;16.10;;;;;;;;;;5094001;28;20589;-83
2024/01/23 08:20:13;;;;;;;48.73;16.43;;;;;;;;;;5084990;28;20198;-83
2024/01/23 08:22:41;;;;;;;38.33;16.63;;;;;;;;;;5083524;28;20270;-85
2024/01/23 08:25:09;;;;;;;40.40;16.10;;;;;;;;;;5082846;28;20270;-85
2024/01/23 08:27:38;;;;;;;27.03;14.23;;;;;;;;;;5080768;28;20212;-84
2024/01/23 08:30:11;;;;;;;32.83;15.83;;;;;;;;;;5082957;28;20702;-85
2024/01/23 08:32:40;;;;;;;38.07;16.17;;;;;;;;;;5080040;28;20209;-85
2024/01/23 08:35:10;;;;;;;42.17;17.40;;;;;;;;;;5074237;28;20238;-86
2024/01/23 08:37:39;;;;;;;36.53;16.13;;;;;;;;;;5072796;28;20325;-86
2024/01/23 08:40:07;;;;;;;41.23;19.17;;;;;;;;;;5072249;28;20198;-86
2024/01/23 08:42:36;;;;;;;36.40;15.50;;;;;;;;;;5078774;28;20252;-86
2024/01/23 08:45:05;;;;;;;47.53;18.37;;;;;;;;;;5073809;28;20720;-84
2024/01/23 08:47:33;;;;;;;36.50;16.97;;;;;;;;;;5075909;28;20202;-84
2024/01/23 08:50:02;;;;;;;41.97;18.63;;;;;;;;;;5094057;28;20301;-84
2024/01/23 08:52:32;;;;;;;50.13;19.80;;;;;;;;;;5081449;28;20221;-85
2024/01/23 08:55:02;;;;;;;43.13;18.30;;;;;;;;;;5082093;28;20218;-86
2024/01/23 08:57:30;;;;;;;46.00;17.37;;;;;;;;;;5084688;28;20206;-86
2024/01/23 08:59:59;;;;;;;33.13;17.00;;;;;;;;;;5087228;28;20226;-86
2024/01/23 09:02:28;;;;;;;59.80;17.03;;;;;;;;;;5088291;28;20490;-86
2024/01/23 09:04:54;;;;;;;55.00;18.73;;;;;;;;;;5085503;28;20203;-85
2024/01/23 09:07:22;;;;;;;48.87;15.93;;;;;;;;;;5081256;28;20190;-84
2024/01/23 09:09:50;;;;;;;38.93;17.63;;;;;;;;;;5082348;28;20206;-85
2024/01/23 09:12:18;;;;;;;52.10;21.03;;;;;;;;;;5092233;28;20193;-86
2024/01/23 09:14:48;;;;;;;31.23;13.50;;;;;;;;;;5101074;28;20229;-85
2024/01/23 09:17:16;;;;;;;29.40;13.23;;;;;;;;;;5100409;28;20225;-86
2024/01/23 09:19:45;;;;;;;33.97;13.23;;;;;;;;;;5091345;28;20202;-84
2024/01/23 09:22:13;;;;;;;43.83;16.40;;;;;;;;;;5082244;28;20196;-86
2024/01/23 09:24:41;;;;;;;35.87;14.73;;;;;;;;;;5081579;28;20200;-86
2024/01/23 09:27:11;;;;;;;38.33;16.17;;;;;;;;;;5083887;28;20613;-86
2024/01/23 09:29:38;;;;;;;34.57;16.40;;;;;;;;;;5081476;28;20202;-85
2024/01/23 09:32:06;;;;;;;46.60;17.63;;;;;;;;;;5084323;28;20190;-85
2024/01/23 09:34:34;;;;;;;39.70;19.97;;;;;;;;;;5073643;28;20230;-85
2024/01/23 09:37:04;;;;;;;34.13;16.50;;;;;;;;;;5072624;28;20229;-85
2024/01/23 09:39:31;;;;;;;31.90;15.60;;;;;;;;;;5072204;28;20207;-85
2024/01/23 09:42:02;;;;;;;36.70;15.93;;;;;;;;;;5071422;28;20206;-85
2024/01/23 09:44:29;;;;;;;37.33;17.33;;;;;;;;;;5074628;28;20194;-85
2024/01/23 09:46:59;;;;;;;36.83;15.27;;;;;;;;;;5077623;28;20339;-85
2024/01/23 09:49:30;;;;;;;32.20;15.63;;;;;;;;;;5082218;28;20202;-85
2024/01/23 09:52:00;;;;;;;45.80;17.47;;;;;;;;;;5084448;28;20201;-85
2024/01/23 09:54:31;;;;;;;53.60;22.50;;;;;;;;;;5087058;28;20229;-85
2024/01/23 09:56:58;;;;;;;61.67;22.80;;;;;;;;;;5089396;28;20214;-86
2024/01/23 09:59:27;;;;;;;52.60;20.07;;;;;;;;;;5075660;28;20234;-85
2024/01/23 10:01:55;;;;;;;48.53;18.97;;;;;;;;;;5079905;28;20708;-85
2024/01/23 10:04:23;;;;;;;41.87;19.17;;;;;;;;;;5090432;28;20226;-85
2024/01/23 10:06:50;;;;;;;47.93;17.77;;;;;;;;;;5088577;28;20222;-86
2024/01/23 10:09:18;;;;;;;44.10;17.13;;;;;;;;;;5089120;28;20231;-86
2024/01/23 10:11:47;;;;;;;39.50;16.20;;;;;;;;;;5102652;28;20214;-86
2024/01/23 10:14:16;;;;;;;43.50;16.17;;;;;;;;;;5109168;28;20237;-86
2024/01/23 10:16:44;;;;;;;35.27;17.43;;;;;;;;;;5096895;28;20327;-86
2024/01/23 10:19:12;;;;;;;64.57;21.00;;;;;;;;;;5096387;28;20737;-86
2024/01/23 10:21:40;;;;;;;58.87;19.77;;;;;;;;;;5096937;28;20493;-85
2024/01/23 10:24:09;;;;;;;48.60;21.47;;;;;;;;;;5096742;28;20306;-85
2024/01/23 10:26:36;;;;;;;36.17;19.67;;;;;;;;;;5092967;28;20302;-87
2024/01/23 10:29:10;;;;;;;48.33;21.37;;;;;;;;;;5083860;28;20218;-86
2024/01/23 10:31:38;;;;;;;51.47;19.50;;;;;;;;;;5085295;28;20214;-86
2024/01/23 10:34:06;;;;;;;46.17;20.20;;;;;;;;;;5096207;28;20245;-87
2024/01/23 10:36:35;;;;;;;55.03;22.60;;;;;;;;;;5095245;28;20224;-85
2024/01/23 10:39:03;;;;;;;52.17;18.77;;;;;;;;;;5095682;28;20308;-84
2024/01/23 10:41:33;;;;;;;41.30;18.37;;;;;;;;;;5094917;28;20224;-85
2024/01/23 10:44:06;;;;;;;49.40;21.70;;;;;;;;;;5094464;28;20230;-85
2024/01/23 10:46:35;;;;;;;51.87;21.37;;;;;;;;;;5089332;28;20233;-85
2024/01/23 10:49:06;;;;;;;49.70;20.93;;;;;;;;;;5080467;28;20718;-85
2024/01/23 10:51:35;;;;;;;48.67;22.93;;;;;;;;;;5074550;28;20234;-85
2024/01/23 10:54:09;;;;;;;51.77;21.70;;;;;;;;;;5093947;28;20289;-85
2024/01/23 10:56:45;;;;;;;59.17;23.33;;;;;;;;;;5094904;28;20339;-86
2024/01/23 10:59:22;;;;;;;63.47;22.90;;;;;;;;;;5090785;28;20226;-85
2024/01/23 11:01:55;;;;;;;67.90;23.77;;;;;;;;;;5088997;28;20233;-85
2024/01/23 11:04:22;;;;;;;57.93;24.20;;;;;;;;;;5075583;28;20257;-84
2024/01/23 11:06:54;;;;;;;47.13;22.60;;;;;;;;;;5083357;28;20313;-86
2024/01/23 11:09:24;;;;;;;64.03;25.23;;;;;;;;;;5078366;28;20686;-85
2024/01/23 11:12:00;;;;;;;57.53;25.47;;;;;;;;;;5075408;28;20226;-85
2024/01/23 11:14:31;;;;;;;72.03;24.87;;;;;;;;;;5083408;28;20224;-86
2024/01/23 11:17:08;;;;;;;64.70;24.47;;;;;;;;;;5095274;28;20221;-86
2024/01/23 11:19:37;;;;;;;79.83;26.30;;;;;;;;;;5092725;28;20634;-85
2024/01/23 11:22:06;;;;;;;67.90;26.97;;;;;;;;;;5081525;28;20533;-83
2024/01/23 11:24:41;;;;;;;57.17;21.70;;;;;;;;;;5091206;28;20237;-85
2024/01/23 11:27:20;;;;;;;57.13;20.60;;;;;;;;;;5105485;28;20251;-85
2024/01/23 11:29:48;;;;;;;51.50;24.17;;;;;;;;;;5099577;28;20300;-84
2024/01/23 11:32:23;;;;;;;68.40;23.90;;;;;;;;;;5093798;28;20222;-85
2024/01/23 11:34:58;;;;;;;57.60;22.10;;;;;;;;;;5086041;28;20265;-85
2024/01/23 11:37:59;;;;;;;54.90;20.73;;;;;;;;;;5098706;28;20546;-85
2024/01/23 11:40:37;;;;;;;57.77;23.07;;;;;;;;;;5075537;28;20542;-85
2024/01/23 11:43:06;;;;;;;47.87;22.93;;;;;;;;;;5073678;28;20663;-86
2024/01/23 11:45:36;;;;;;;58.97;23.00;;;;;;;;;;5092799;28;20230;-85
2024/01/23 11:48:06;;;;;;;61.33;24.63;;;;;;;;;;5088494;28;20230;-86
2024/01/23 11:50:35;;;;;;;66.00;25.60;;;;;;;;;;5096008;28;20281;-85
2024/01/23 11:53:03;;;;;;;65.93;24.83;;;;;;;;;;5095301;28;20287;-86
2024/01/23 11:55:33;;;;;;;60.20;23.07;;;;;;;;;;5094073;28;20229;-86
2024/01/23 11:58:01;;;;;;;65.43;23.07;;;;;;;;;;5093546;28;20300;-87
2024/01/23 12:00:30;;;;;;;61.17;25.33;;;;;;;;;;5094815;28;20233;-86
2024/01/23 12:02:59;;;;;;;62.90;24.17;;;;;;;;;;5098992;28;20244;-85
2024/01/23 12:05:29;;;;;;;84.03;28.10;;;;;;;;;;5093539;28;20822;-86
2024/01/23 12:07:57;;;;;;;76.83;25.90;;;;;;;;;;5097112;28;20213;-86
2024/01/23 12:10:28;;;;;;;58.00;25.70;;;;;;;;;;5098667;28;20313;-87
2024/01/23 12:12:57;;;;;;;66.53;22.47;;;;;;;;;;5101081;28;20689;-86
2024/01/23 12:15:25;;;;;;;66.63;23.07;;;;;;;;;;5099264;28;20233;-87
2024/01/23 12:17:52;;;;;;;64.10;24.30;;;;;;;;;;5085501;28;20247;-85
2024/01/23 12:20:21;;;;;;;69.57;28.10;;;;;;;;;;5093023;28;20221;-86
2024/01/23 12:22:51;;;;;;;77.00;28.73;;;;;;;;;;5078529;28;20663;-85
2024/01/23 12:25:18;;;;;;;55.27;25.90;;;;;;;;;;5072889;28;20222;-85
2024/01/23 12:27:51;;;;;;;57.03;24.87;;;;;;;;;;5084215;28;20226;-84
2024/01/23 12:30:19;;;;;;;64.30;24.40;;;;;;;;;;5094292;28;20214;-86
2024/01/23 12:32:49;;;;;;;65.60;26.73;;;;;;;;;;5079166;28;20219;-85
2024/01/23 12:35:20;;;;;;;71.63;23.90;;;;;;;;;;5075523;28;20269;-86
2024/01/23 12:37:47;;;;;;;71.00;24.13;;;;;;;;;;5082428;28;20260;-86
2024/01/23 12:40:18;;;;;;;68.57;25.00;;;;;;;;;;5082401;28;20561;-86
2024/01/23 12:42:47;;;;;;;45.63;21.90;;;;;;;;;;5089611;28;20289;-86
2024/01/23 12:45:15;;;;;;;76.23;27.20;;;;;;;;;;5093084;28;20283;-86
2024/01/23 12:47:44;;;;;;;78.93;29.03;;;;;;;;;;5090009;28;20324;-85
2024/01/23 12:50:17;;;;;;;60.63;26.57;;;;;;;;;;5073051;28;20374;-86
2024/01/23 12:52:45;;;;;;;51.77;25.23;;;;;;;;;;5078849;28;20237;-84
2024/01/23 12:55:13;;;;;;;69.03;28.57;;;;;;;;;;5092313;28;20226;-85
2024/01/23 12:57:45;;;;;;;73.47;27.50;;;;;;;;;;5092971;28;20240;-87
2024/01/23 13:00:14;;;;;;;59.67;25.03;;;;;;;;;;5093914;28;20218;-85
2024/01/23 13:02:43;;;;;;;74.87;26.97;;;;;;;;;;5092885;28;20262;-85
2024/01/23 13:05:14;;;;;;;63.40;27.63;;;;;;;;;;5095988;28;20293;-85
2024/01/23 13:07:48;;;;;;;49.53;25.43;;;;;;;;;;5106747;28;20251;-87
2024/01/23 13:15:48;;;;;;;69.63;27.67;;;;;;;;;;5113999;28;20285;-87
2024/01/23 13:18:33;;;;;;;70.30;25.23;;;;;;;;;;5114599;28;20209;-85
2024/01/23 13:21:09;;;;;;;65.10;23.60;;;;;;;;;;5095246;28;20230;-86
2024/01/23 13:23:42;;;;;;;54.40;22.80;;;;;;;;;;5093917;28;20228;-86
2024/01/23 13:26:11;;;;;;;23.03;9.53;;;;;;;;;;5092942;28;20282;-85
2024/01/23 13:28:53;;;;;;;5.97;4.33;;;;;;;;;;5105690;28;20294;-87
2024/01/23 13:31:35;;;;;;;11.15;7.03;;;;;;;;;;5112404;28;20448;-87
2024/01/23 13:34:15;;;;;;;4.20;2.77;;;;;;;;;;5106454;28;20229;-86
2024/01/23 13:36:47;;;;;;;3.03;2.83;;;;;;;;;;5093718;28;20253;-87
2024/01/23 13:39:32;;;;;;;8.57;2.77;;;;;;;;;;5096375;28;20233;-87
2024/01/23 13:42:02;;;;;;;2.27;2.17;;;;;;;;;;5111773;28;20718;-87
2024/01/23 13:44:31;;;;;;;2.37;1.83;;;;;;;;;;5090565;28;20402;-86
2024/01/23 13:49:36;;;;;;;1.20;1.20;;;;;;;;;;6174183;22;21278;-87
2024/01/23 14:00:21;;;;;;;2.80;2.23;;;;;;;;;;5636930;22;20263;-86
2024/01/23 14:02:50;;;;;;;3.33;2.10;;;;;;;;;;5027866;28;20255;-86
2024/01/23 14:05:21;;;;;;;2.37;2.13;;;;;;;;;;5088940;22;20266;-86
2024/01/23 14:07:51;;;;;;;2.70;2.37;;;;;;;;;;5046805;28;20227;-87
2024/01/23 14:43:42;;;;;;;6.30;4.37;;;;;;;;;;5073265;28;20212;-87
2024/01/23 14:46:26;;;;;;;5.97;4.17;;;;;;;;;;5073182;28;20195;-87
2024/01/23 14:49:00;;;;;;;2.70;2.57;;;;;;;;;;5081590;28;20230;-86
2024/01/23 14:54:54;;;;;;;4.40;3.23;;;;;;;;;;5074591;28;20239;-86
2024/01/23 14:57:39;;;;;;;7.40;3.93;;;;;;;;;;5076873;28;20227;-86
2024/01/23 15:03:09;;;;;;;1.57;1.47;;;;;;;;;;5224278;22;20214;-87
2024/01/23 15:05:47;;;;;;;4.10;2.80;;;;;;;;;;5084333;28;20313;-86
2024/01/23 15:08:19;;;;;;;6.07;2.50;;;;;;;;;;5245667;22;20267;-87
2024/01/23 15:13:51;;;;;;;6.23;4.03;;;;;;;;;;5049329;28;20324;-86
2024/01/23 15:19:06;;;;;;;8.60;5.60;;;;;;;;;;5211211;22;20266;-86
2024/01/23 15:27:12;;;;;;;10.80;4.00;;;;;;;;;;5682958;22;20431;-86
2024/01/23 15:29:46;;;;;;;6.30;4.10;;;;;;;;;;5054372;28;20232;-86
2024/01/23 15:34:59;;;;;;;4.40;3.53;;;;;;;;;;5242641;22;20282;-86
2024/01/23 15:37:29;;;;;;;4.93;2.97;;;;;;;;;;5102203;28;20272;-87
2024/01/23 15:40:11;;;;;;;11.60;3.53;;;;;;;;;;5104137;28;20224;-86
2024/01/23 15:48:17;;;;;;;3.33;3.03;;;;;;;;;;5249982;22;20227;-87
2024/01/23 15:50:50;;;;;;;7.73;3.87;;;;;;;;;;5097737;28;20222;-87
2024/01/23 15:53:21;;;;;;;7.93;4.47;;;;;;;;;;5116610;28;20210;-87
2024/01/23 15:55:56;;;;;;;9.53;5.00;;;;;;;;;;5116944;28;20281;-86